ePrivacy and GPDR Cookie Consent by Cookie Consent
EmailTwitter


Surface observations / France / LFBD (07510)

Regions: Quebec | Canada | USA | Europe | France | UK | Elsewhere
Station
Display
Info & Location for LFBD (07510) | Help decoding METAR

Weather Conditions observed on 2022/01/17 at 19:30 UTC at BORDEAUX/MERIGNA, FR (LFBD)

Sky conditions: overcast.

Temperature: 6.0 Celsius.

Dewpoint: 5.0 Celsius.

Relative Humidity: 93%

Windchill Factor 4.

Winds: Northeast at 11 km/h or 6 knots.

Mean Sea level Pressure: 103.60 kilopascals.

Horizontal visibility: 6.21 statute miles or 9.94 kilometers.

Height of the Ceiling: 183 metres ( 600 feet ).

Coded METAR:

LFBD 171930Z AUTO 04006KT 020V080 9999 OVC006 06/05 Q1036 BECMG 4000 BR OVC002=